Terminal Aerodrome Forecast
Issued by NWS Wilmington, NC

Home | Current Version | Previous Version | Text Only | Print | Product List | Glossary On
Versions: 1 2 3 4 5 6 7 8 9 10 11 12 13 14 15
000
FTUS42 KILM 302300
TAFFLO
TAF
KFLO 302325Z 0100/0124 VRB02KT P6SM SKC
     FM010800 00000KT 4SM BR SKC
      TEMPO 0109/0112 2SM BR
     FM011300 03006KT P6SM FEW050=

USA.gov is the U.S. government's official web portal to all federal, state and local government web resources and services.